Time;durP1;ratioP1;P1;durP2;ratioP2;P2;SDS_P1;SDS_P2;PMS_P1;PMS_P2;Temp;Humidity;BMP_temperature;BMP_pressure;BME280_temperature;BME280_humidity;BME280_pressure;Samples;Min_cycle;Max_cycle;Signal;HPM_P1;HPM_P2
2024/03/09 00:02:18;;;;;;;40.78;25.40;;;23.30;41.60;;;;;;6155592;28;84115;-60
2024/03/09 00:05:19;;;;;;;37.17;24.40;;;23.20;41.50;;;;;;6153432;28;84069;-60
2024/03/09 00:08:21;;;;;;;40.25;25.63;;;23.20;41.50;;;;;;6160190;28;87177;-59
2024/03/09 00:11:21;;;;;;;37.58;25.15;;;23.30;41.60;;;;;;6159497;28;85677;-59
2024/03/09 00:14:22;;;;;;;38.22;24.48;;;23.30;41.60;;;;;;6160991;28;83937;-59
2024/03/09 00:17:23;;;;;;;37.35;23.67;;;23.30;41.60;;;;;;6151781;28;85501;-59
2024/03/09 00:20:25;;;;;;;41.75;25.42;;;23.20;41.50;;;;;;6152254;28;83975;-59
2024/03/09 00:23:29;;;;;;;37.38;24.17;;;23.30;41.50;;;;;;6160340;28;82983;-60
2024/03/09 00:26:29;;;;;;;38.83;24.38;;;23.20;41.50;;;;;;6161272;28;83152;-60
2024/03/09 00:29:31;;;;;;;40.25;24.55;;;23.20;41.50;;;;;;6161509;28;88298;-59
2024/03/09 00:32:31;;;;;;;42.42;25.13;;;23.20;41.50;;;;;;6151624;28;85617;-59
2024/03/09 00:35:32;;;;;;;38.05;24.60;;;23.30;41.70;;;;;;6153514;28;83340;-60
2024/03/09 00:38:34;;;;;;;40.20;24.40;;;23.30;41.60;;;;;;6165749;28;83393;-59
2024/03/09 00:41:34;;;;;;;35.00;24.48;;;23.30;41.50;;;;;;6179777;28;83349;-59
2024/03/09 00:44:35;;;;;;;37.55;24.08;;;23.20;41.40;;;;;;6163269;28;88089;-59
2024/03/09 00:47:35;;;;;;;35.92;24.50;;;23.20;41.40;;;;;;6148072;28;85583;-59
2024/03/09 00:50:36;;;;;;;37.90;24.33;;;23.20;41.50;;;;;;6149581;28;83280;-59
2024/03/09 00:53:36;;;;;;;37.65;25.35;;;23.20;41.50;;;;;;6152106;28;84129;-58
2024/03/09 00:56:37;;;;;;;35.97;24.02;;;23.20;41.50;;;;;;6172077;28;83428;-58
2024/03/09 00:59:37;;;;;;;38.85;25.02;;;23.20;41.40;;;;;;6168181;28;83925;-58
2024/03/09 01:02:38;;;;;;;39.17;25.42;;;23.20;41.40;;;;;;6173921;28;84052;-57
2024/03/09 01:05:38;;;;;;;37.22;24.30;;;23.20;41.30;;;;;;6173025;28;83247;-58
2024/03/09 01:08:40;;;;;;;41.70;25.48;;;23.20;41.30;;;;;;6174891;28;83525;-58
2024/03/09 01:11:40;;;;;;;37.85;23.90;;;23.20;41.30;;;;;;6174369;28;83359;-58
2024/03/09 01:14:41;;;;;;;37.67;24.17;;;23.20;41.30;;;;;;6174998;28;83355;-58
2024/03/09 01:17:41;;;;;;;42.00;25.08;;;23.20;41.60;;;;;;6174577;28;83593;-58
2024/03/09 01:20:42;;;;;;;38.20;25.30;;;23.20;41.10;;;;;;6174628;28;83244;-59
2024/03/09 01:23:43;;;;;;;39.97;25.08;;;23.20;41.10;;;;;;6175847;28;83561;-57
2024/03/09 01:26:44;;;;;;;38.13;24.35;;;23.20;41.10;;;;;;6175041;28;83142;-59
2024/03/09 01:29:46;;;;;;;37.05;24.17;;;23.10;41.00;;;;;;6174548;28;83649;-58
2024/03/09 01:32:49;;;;;;;39.20;25.30;;;23.10;40.90;;;;;;6174699;28;85683;-57
2024/03/09 01:35:50;;;;;;;38.70;25.85;;;23.10;40.90;;;;;;6174896;28;83432;-55
2024/03/09 01:38:50;;;;;;;39.53;24.85;;;23.10;40.90;;;;;;6174290;28;83048;-58
2024/03/09 01:41:51;;;;;;;38.22;24.15;;;23.10;40.90;;;;;;6173883;28;83171;-60
2024/03/09 01:44:52;;;;;;;38.17;23.83;;;23.10;40.90;;;;;;6174152;28;83696;-60
2024/03/09 01:47:53;;;;;;;36.42;23.42;;;23.10;40.80;;;;;;6173986;28;83259;-61
2024/03/09 01:50:53;;;;;;;40.13;25.17;;;23.20;40.90;;;;;;6170070;28;84648;-61
2024/03/09 01:53:54;;;;;;;36.83;24.02;;;23.10;40.70;;;;;;6171044;28;83369;-59
2024/03/09 01:56:55;;;;;;;36.30;23.75;;;23.10;40.70;;;;;;6175380;28;83065;-61
2024/03/09 01:59:56;;;;;;;37.80;23.42;;;23.10;40.70;;;;;;6173472;28;83007;-61
2024/03/09 02:02:57;;;;;;;39.03;24.50;;;23.10;40.70;;;;;;6175173;28;85440;-60
2024/03/09 02:05:58;;;;;;;39.58;24.92;;;23.10;40.70;;;;;;6173042;28;83545;-62
2024/03/09 02:08:58;;;;;;;37.25;24.27;;;23.10;40.70;;;;;;6175810;28;87353;-63
2024/03/09 02:12:02;;;;;;;38.47;24.63;;;23.10;40.80;;;;;;6188571;28;83167;-63
2024/03/09 02:15:04;;;;;;;36.22;25.58;;;23.10;40.70;;;;;;6171740;28;84317;-63
2024/03/09 02:18:10;;;;;;;41.63;26.73;;;23.10;40.80;;;;;;6173704;28;83759;-60
2024/03/09 02:21:12;;;;;;;37.83;24.55;;;23.10;40.80;;;;;;6161051;28;83340;-59
2024/03/09 02:24:14;;;;;;;36.55;24.73;;;23.10;40.90;;;;;;6173041;28;82928;-59
2024/03/09 02:27:14;;;;;;;39.03;25.20;;;23.10;41.00;;;;;;6186657;28;83118;-59
2024/03/09 02:30:15;;;;;;;39.03;24.58;;;23.10;41.00;;;;;;6172870;28;84036;-60
2024/03/09 02:33:15;;;;;;;34.15;23.70;;;23.10;40.90;;;;;;6172920;28;83182;-58
2024/03/09 02:36:16;;;;;;;36.25;25.08;;;23.10;40.80;;;;;;6173922;28;86775;-59
2024/03/09 02:39:16;;;;;;;36.35;23.77;;;23.10;40.90;;;;;;6185936;28;84900;-59
2024/03/09 02:42:17;;;;;;;39.53;25.10;;;23.10;40.90;;;;;;6173123;28;84655;-58
2024/03/09 02:45:17;;;;;;;37.70;23.95;;;23.10;40.70;;;;;;6165325;28;85516;-57
2024/03/09 02:48:18;;;;;;;39.53;24.77;;;23.10;40.70;;;;;;6167655;28;83262;-58
2024/03/09 02:51:18;;;;;;;37.47;24.02;;;23.10;40.70;;;;;;6172828;28;83905;-58
2024/03/09 02:54:19;;;;;;;36.20;22.85;;;23.10;40.70;;;;;;6174135;28;84600;-58
2024/03/09 02:57:20;;;;;;;37.53;24.27;;;23.10;40.70;;;;;;6174041;28;83029;-58
2024/03/09 03:00:26;;;;;;;33.70;22.83;;;23.10;40.60;;;;;;6173113;28;83271;-58
2024/03/09 03:03:46;;;;;;;37.72;23.27;;;23.10;40.70;;;;;;6172755;28;84890;-59
2024/03/09 03:06:47;;;;;;;32.08;21.73;;;23.10;40.60;;;;;;6171475;28;83031;-58
2024/03/09 03:09:54;;;;;;;32.92;22.05;;;23.10;40.60;;;;;;6172202;28;82872;-58
2024/03/09 03:12:54;;;;;;;35.08;22.42;;;23.00;40.40;;;;;;6172831;28;84180;-57
2024/03/09 03:15:55;;;;;;;34.28;21.45;;;23.00;40.50;;;;;;6172612;28;84162;-58
2024/03/09 03:18:55;;;;;;;31.20;20.55;;;23.00;40.60;;;;;;6172304;28;83141;-57
2024/03/09 03:21:56;;;;;;;29.38;19.55;;;23.00;40.50;;;;;;6172528;28;83240;-56
2024/03/09 03:24:56;;;;;;;29.55;20.10;;;23.00;40.40;;;;;;6172945;28;83053;-58
2024/03/09 03:27:57;;;;;;;33.30;21.58;;;23.00;40.50;;;;;;6173103;28;83248;-58
2024/03/09 03:30:58;;;;;;;32.40;20.17;;;23.00;40.50;;;;;;6172084;28;84357;-58
2024/03/09 03:34:00;;;;;;;34.30;21.08;;;23.00;40.50;;;;;;6172518;28;83411;-58
2024/03/09 03:37:03;;;;;;;30.77;20.63;;;23.00;40.40;;;;;;6172388;28;83117;-57
2024/03/09 03:40:07;;;;;;;27.48;19.35;;;23.00;40.40;;;;;;6171413;28;83588;-59
2024/03/09 03:43:07;;;;;;;25.67;18.10;;;23.00;40.30;;;;;;6172247;28;85027;-57
2024/03/09 03:46:09;;;;;;;29.80;19.13;;;23.00;40.40;;;;;;6171756;28;83213;-57
2024/03/09 03:49:10;;;;;;;25.60;17.63;;;23.00;40.30;;;;;;6172780;28;84164;-56
2024/03/09 03:52:11;;;;;;;27.60;19.35;;;23.00;40.40;;;;;;6172414;28;84093;-58
2024/03/09 03:55:11;;;;;;;25.95;18.02;;;23.00;40.30;;;;;;6172645;28;83439;-57
2024/03/09 03:58:15;;;;;;;25.20;17.77;;;23.00;40.40;;;;;;6171654;28;83274;-59
2024/03/09 04:01:15;;;;;;;23.33;16.67;;;22.90;40.30;;;;;;6172046;28;83195;-59
2024/03/09 04:04:16;;;;;;;22.77;15.82;;;23.00;40.50;;;;;;6171651;28;83864;-59
2024/03/09 04:07:16;;;;;;;23.38;16.73;;;23.00;40.50;;;;;;6171653;28;83783;-63
2024/03/09 04:10:18;;;;;;;24.55;17.00;;;23.00;40.60;;;;;;6173154;28;83377;-62
2024/03/09 04:13:23;;;;;;;27.45;18.08;;;23.00;40.50;;;;;;6180524;28;82967;-62
2024/03/09 04:16:24;;;;;;;24.97;16.73;;;23.00;40.90;;;;;;6186887;28;83693;-61
2024/03/09 04:19:24;;;;;;;23.50;16.02;;;23.00;41.40;;;;;;6175153;28;83752;-62
2024/03/09 04:22:25;;;;;;;25.50;17.33;;;23.10;41.00;;;;;;6172075;28;84789;-61
2024/03/09 04:25:27;;;;;;;24.15;16.15;;;23.10;40.20;;;;;;6174809;28;83495;-59
2024/03/09 04:28:28;;;;;;;25.17;16.40;;;23.20;40.00;;;;;;6179985;28;85295;-59
2024/03/09 04:31:32;;;;;;;25.95;16.70;;;23.20;39.90;;;;;;6170847;28;83506;-59
2024/03/09 04:34:33;;;;;;;25.67;16.90;;;23.30;39.80;;;;;;6171850;28;84057;-59
2024/03/09 04:37:34;;;;;;;26.33;16.40;;;23.30;39.60;;;;;;6182751;28;83857;-58
2024/03/09 04:40:35;;;;;;;24.77;16.38;;;23.30;39.50;;;;;;6173727;28;84567;-57
2024/03/09 04:43:38;;;;;;;22.15;16.55;;;23.40;39.60;;;;;;6171771;28;83208;-62
2024/03/09 04:46:39;;;;;;;26.13;16.00;;;23.40;39.40;;;;;;6171580;28;83198;-63
2024/03/09 04:49:39;;;;;;;22.67;15.90;;;23.50;39.60;;;;;;6188099;28;83691;-63
2024/03/09 04:52:40;;;;;;;20.50;14.52;;;23.50;39.30;;;;;;6184767;28;85532;-62
2024/03/09 04:55:44;;;;;;;26.40;16.30;;;23.50;39.70;;;;;;6201498;28;83939;-64
2024/03/09 04:58:44;;;;;;;22.38;16.17;;;23.50;39.30;;;;;;6162935;28;83373;-64
2024/03/09 05:01:45;;;;;;;21.20;15.18;;;23.50;39.40;;;;;;6176120;28;83225;-59
2024/03/09 05:04:45;;;;;;;23.92;16.70;;;23.60;39.10;;;;;;6187603;28;83875;-59
2024/03/09 05:07:46;;;;;;;23.00;16.10;;;23.60;39.00;;;;;;6175768;28;83173;-58
2024/03/09 05:10:46;;;;;;;23.20;16.75;;;23.60;38.90;;;;;;6175287;28;83534;-58
2024/03/09 05:13:47;;;;;;;21.27;15.80;;;23.60;39.00;;;;;;6187041;28;83809;-58
2024/03/09 05:16:48;;;;;;;22.98;16.27;;;23.60;39.20;;;;;;6174884;28;86618;-59
2024/03/09 05:19:48;;;;;;;23.50;16.10;;;23.60;39.10;;;;;;6172291;28;83056;-64
2024/03/09 05:22:49;;;;;;;21.35;14.32;;;23.60;39.20;;;;;;6175317;28;83621;-57
2024/03/09 05:25:49;;;;;;;23.45;15.95;;;23.70;39.60;;;;;;6175075;28;83289;-55
2024/03/09 05:28:50;;;;;;;22.20;14.48;;;23.70;39.70;;;;;;6176840;28;83851;-57
2024/03/09 05:31:51;;;;;;;23.02;14.73;;;23.70;40.00;;;;;;6174465;28;83361;-57
2024/03/09 05:34:51;;;;;;;24.05;15.57;;;23.70;39.80;;;;;;6174281;28;83901;-56
2024/03/09 05:37:52;;;;;;;22.63;14.90;;;23.70;39.80;;;;;;6175024;28;83647;-57
2024/03/09 05:40:52;;;;;;;25.08;15.77;;;23.70;39.90;;;;;;6174349;28;83388;-61
2024/03/09 05:43:53;;;;;;;23.67;15.75;;;23.70;39.80;;;;;;6175027;28;83487;-59
2024/03/09 05:46:53;;;;;;;23.35;15.82;;;23.70;39.70;;;;;;6186778;28;83238;-60
2024/03/09 05:49:54;;;;;;;25.13;16.55;;;23.70;39.90;;;;;;6173969;28;83478;-61
2024/03/09 05:52:54;;;;;;;23.13;15.52;;;23.70;39.90;;;;;;6172240;28;86180;-60
2024/03/09 05:55:55;;;;;;;24.67;16.58;;;23.70;39.90;;;;;;6175501;28;83295;-61
2024/03/09 05:58:55;;;;;;;24.10;16.13;;;23.70;39.90;;;;;;6174192;28;84511;-59
2024/03/09 06:01:56;;;;;;;22.08;16.05;;;23.70;39.80;;;;;;6156314;28;84908;-60
2024/03/09 06:04:56;;;;;;;24.15;16.40;;;23.70;40.00;;;;;;6144376;28;84937;-60
2024/03/09 06:07:57;;;;;;;26.45;17.42;;;23.70;40.00;;;;;;6154261;28;87653;-55
2024/03/09 06:10:57;;;;;;;23.65;16.30;;;23.70;40.10;;;;;;6146824;28;83569;-53
2024/03/09 06:13:58;;;;;;;23.50;17.15;;;23.70;40.20;;;;;;6166476;28;83373;-60
2024/03/09 06:16:59;;;;;;;23.75;16.20;;;23.70;40.00;;;;;;6169137;28;84701;-57
2024/03/09 06:20:02;;;;;;;25.67;16.15;;;23.70;40.40;;;;;;6148701;28;84279;-58
2024/03/09 06:23:03;;;;;;;23.13;16.45;;;23.70;40.00;;;;;;6171509;28;85888;-59
2024/03/09 06:26:04;;;;;;;28.10;17.88;;;23.70;40.70;;;;;;6168627;28;84128;-60
2024/03/09 06:29:04;;;;;;;27.92;17.95;;;23.70;40.10;;;;;;6174852;28;83368;-60
2024/03/09 06:32:05;;;;;;;34.53;22.08;;;23.70;40.20;;;;;;6168848;28;83059;-59
2024/03/09 06:35:07;;;;;;;45.20;26.98;;;23.60;40.90;;;;;;6165759;28;83261;-56
2024/03/09 06:38:10;;;;;;;40.78;23.40;;;23.60;41.40;;;;;;6165068;28;84272;-59
2024/03/09 06:41:11;;;;;;;35.10;22.35;;;23.60;41.20;;;;;;6167176;28;83057;-57
2024/03/09 06:44:14;;;;;;;37.40;23.88;;;23.60;41.40;;;;;;6172442;28;86821;-58
2024/03/09 06:47:15;;;;;;;46.25;25.75;;;23.60;41.60;;;;;;6169567;28;84098;-60
2024/03/09 06:50:17;;;;;;;43.85;24.55;;;23.70;42.20;;;;;;6164853;28;91326;-57
2024/03/09 06:53:17;;;;;;;40.58;24.52;;;23.70;42.40;;;;;;6170838;28;82972;-59
2024/03/09 06:56:18;;;;;;;40.17;23.55;;;23.60;42.70;;;;;;6171307;28;83408;-58
2024/03/09 06:59:18;;;;;;;38.58;23.73;;;23.60;42.50;;;;;;6169420;28;82770;-60
2024/03/09 07:02:19;;;;;;;46.63;21.23;;;23.60;42.60;;;;;;6172365;28;85640;-60
2024/03/09 07:05:20;;;;;;;35.88;22.77;;;23.60;42.60;;;;;;6162504;28;85833;-61
2024/03/09 07:08:21;;;;;;;34.55;21.02;;;23.70;42.90;;;;;;6169442;28;83397;-58
2024/03/09 07:11:22;;;;;;;33.25;20.88;;;23.70;43.00;;;;;;6167736;28;84918;-60
2024/03/09 07:14:24;;;;;;;33.78;20.33;;;23.70;42.60;;;;;;6158373;28;83499;-60
2024/03/09 07:17:28;;;;;;;32.58;19.92;;;23.70;42.70;;;;;;6171161;28;83355;-60
2024/03/09 07:20:32;;;;;;;32.08;19.70;;;23.60;42.30;;;;;;6169062;28;84604;-61
2024/03/09 07:23:32;;;;;;;32.65;19.58;;;23.60;42.10;;;;;;6170676;28;83045;-60
2024/03/09 07:26:33;;;;;;;30.52;18.27;;;23.60;42.30;;;;;;6159008;28;83733;-63
2024/03/09 07:29:35;;;;;;;33.88;19.77;;;23.60;42.80;;;;;;6171126;28;83016;-63
2024/03/09 07:32:35;;;;;;;31.45;18.83;;;23.60;43.20;;;;;;6167073;28;83503;-61
2024/03/09 07:35:36;;;;;;;31.15;19.50;;;23.60;42.30;;;;;;6170552;28;84890;-62
2024/03/09 07:38:36;;;;;;;26.77;17.67;;;23.60;42.20;;;;;;6169951;28;83817;-63
2024/03/09 07:41:37;;;;;;;30.45;18.40;;;23.50;42.20;;;;;;6156329;28;85894;-65
2024/03/09 07:44:38;;;;;;;28.30;18.15;;;23.50;42.20;;;;;;6169725;28;83178;-61
2024/03/09 07:47:39;;;;;;;25.85;16.65;;;23.50;42.50;;;;;;6167235;28;82899;-63
2024/03/09 07:50:39;;;;;;;27.48;16.48;;;23.50;42.80;;;;;;6171037;28;82948;-61
2024/03/09 07:53:40;;;;;;;30.00;17.40;;;23.50;42.90;;;;;;6171212;28;85467;-60
2024/03/09 07:56:40;;;;;;;32.17;16.40;;;23.60;43.30;;;;;;6170831;28;84333;-59
2024/03/09 07:59:41;;;;;;;28.38;15.95;;;23.60;43.40;;;;;;6167309;28;84139;-60
2024/03/09 08:02:41;;;;;;;29.17;15.30;;;23.60;43.30;;;;;;6170751;28;83529;-60
2024/03/09 08:05:42;;;;;;;22.23;15.48;;;23.60;43.50;;;;;;6169765;28;83222;-65
2024/03/09 08:08:43;;;;;;;26.80;14.82;;;23.60;43.40;;;;;;6169872;28;83500;-60
2024/03/09 08:11:44;;;;;;;24.52;16.02;;;23.60;43.50;;;;;;6170027;28;83682;-59
2024/03/09 08:14:44;;;;;;;23.88;14.88;;;23.60;43.40;;;;;;6157777;28;83358;-62
2024/03/09 08:17:48;;;;;;;22.33;15.23;;;23.60;43.30;;;;;;6183507;28;83390;-62
2024/03/09 08:20:49;;;;;;;22.70;13.98;;;23.70;43.50;;;;;;6168686;28;83205;-61
2024/03/09 08:23:52;;;;;;;21.15;13.82;;;23.60;43.30;;;;;;6170951;28;85015;-61
2024/03/09 08:26:53;;;;;;;21.52;14.95;;;23.70;43.40;;;;;;6170434;28;87262;-62
2024/03/09 08:29:53;;;;;;;21.15;13.98;;;23.70;43.50;;;;;;6173829;28;83271;-61
2024/03/09 08:32:54;;;;;;;26.90;14.10;;;23.60;43.20;;;;;;6172019;28;82895;-62
2024/03/09 08:35:58;;;;;;;31.13;14.70;;;23.60;42.80;;;;;;6166404;28;83410;-65
2024/03/09 08:38:58;;;;;;;20.73;14.20;;;23.60;42.90;;;;;;6167686;28;83253;-61
2024/03/09 08:42:01;;;;;;;22.65;13.23;;;23.60;43.00;;;;;;6167623;28;83651;-63
2024/03/09 08:45:01;;;;;;;20.88;13.80;;;23.60;43.00;;;;;;6167897;28;83382;-55
2024/03/09 08:48:03;;;;;;;21.92;13.98;;;23.60;43.20;;;;;;6170235;28;83119;-55
2024/03/09 08:51:04;;;;;;;28.20;14.73;;;23.60;43.10;;;;;;6164729;28;84062;-55
2024/03/09 08:54:05;;;;;;;21.88;13.57;;;23.50;43.00;;;;;;6164670;28;83545;-51
2024/03/09 08:57:07;;;;;;;25.00;14.57;;;23.50;42.90;;;;;;6165203;28;83137;-55
2024/03/09 09:00:07;;;;;;;27.90;14.65;;;23.50;42.70;;;;;;6173941;28;83268;-58
2024/03/09 09:03:10;;;;;;;25.20;15.07;;;23.60;43.30;;;;;;6171334;28;83330;-51
2024/03/09 09:06:11;;;;;;;22.90;14.25;;;23.60;43.90;;;;;;6165729;28;83677;-52
2024/03/09 09:09:24;;;;;;;20.00;13.88;;;23.60;43.50;;;;;;6167633;28;84000;-54
2024/03/09 09:12:24;;;;;;;23.08;13.13;;;23.60;43.90;;;;;;6163286;28;87859;-53
2024/03/09 09:15:25;;;;;;;20.92;12.82;;;23.60;43.90;;;;;;6161695;28;83582;-57
2024/03/09 09:18:25;;;;;;;23.80;13.45;;;23.60;43.70;;;;;;6175274;28;83343;-57
2024/03/09 09:21:26;;;;;;;19.52;12.93;;;23.60;44.00;;;;;;6171695;28;84209;-60
2024/03/09 09:24:26;;;;;;;21.00;12.90;;;23.70;43.60;;;;;;6153319;28;82934;-60
2024/03/09 09:27:29;;;;;;;19.33;13.63;;;23.70;43.80;;;;;;6151228;28;83918;-61
2024/03/09 09:30:29;;;;;;;22.63;13.60;;;23.70;43.50;;;;;;6167069;28;83531;-63
2024/03/09 09:33:30;;;;;;;19.40;13.30;;;23.70;43.40;;;;;;6170829;28;83600;-67
2024/03/09 09:36:30;;;;;;;19.00;12.48;;;23.60;43.30;;;;;;6163878;28;83347;-60
2024/03/09 09:39:34;;;;;;;21.27;13.00;;;23.60;43.40;;;;;;6164406;28;84495;-61
2024/03/09 09:42:34;;;;;;;20.17;13.00;;;23.60;43.20;;;;;;6169042;28;89761;-60
2024/03/09 09:45:34;;;;;;;17.52;11.48;;;23.60;43.10;;;;;;6174138;28;83630;-61
2024/03/09 09:48:38;;;;;;;24.30;13.68;;;23.60;43.40;;;;;;6173499;28;83294;-62
2024/03/09 09:51:38;;;;;;;26.60;13.45;;;23.50;43.00;;;;;;6168659;28;83980;-59
2024/03/09 09:54:39;;;;;;;20.88;13.13;;;23.50;42.80;;;;;;6172246;28;83197;-59
2024/03/09 09:57:39;;;;;;;19.95;12.38;;;23.50;43.20;;;;;;6173072;28;83212;-60
2024/03/09 10:00:40;;;;;;;22.58;14.30;;;23.50;43.00;;;;;;6169343;28;83315;-60
2024/03/09 10:03:40;;;;;;;21.67;13.40;;;23.50;43.20;;;;;;6168525;28;83461;-61
2024/03/09 10:06:41;;;;;;;19.58;12.35;;;23.50;42.80;;;;;;6168372;28;83994;-61
2024/03/09 10:09:41;;;;;;;18.08;12.55;;;23.40;42.70;;;;;;6169488;28;83175;-61
2024/03/09 10:12:42;;;;;;;22.58;12.30;;;23.50;42.70;;;;;;6165458;28;83129;-61
2024/03/09 10:15:43;;;;;;;20.52;13.38;;;23.40;42.70;;;;;;6164116;28;88188;-60
2024/03/09 10:18:44;;;;;;;20.92;13.75;;;23.50;43.20;;;;;;6165275;28;83201;-62
2024/03/09 10:21:45;;;;;;;18.80;13.20;;;23.50;43.60;;;;;;6169550;28;83418;-60
2024/03/09 10:24:46;;;;;;;25.50;12.38;;;23.50;43.60;;;;;;6160289;28;83686;-60
2024/03/09 10:27:47;;;;;;;19.52;12.35;;;23.50;43.60;;;;;;6169406;28;83119;-61
2024/03/09 10:30:48;;;;;;;23.90;12.98;;;23.50;44.00;;;;;;6166635;28;82977;-69
2024/03/09 10:33:48;;;;;;;18.98;11.80;;;23.50;44.20;;;;;;6170810;28;83822;-67
2024/03/09 10:36:49;;;;;;;23.08;12.77;;;23.50;43.80;;;;;;6169939;28;83292;-63
2024/03/09 10:39:50;;;;;;;18.30;12.57;;;23.60;43.90;;;;;;6170599;28;84308;-66
2024/03/09 10:42:51;;;;;;;17.55;12.73;;;23.60;43.70;;;;;;6170059;28;83287;-61
2024/03/09 10:45:51;;;;;;;17.20;11.70;;;23.60;44.00;;;;;;6167132;28;82927;-64
2024/03/09 10:48:52;;;;;;;20.10;11.85;;;23.70;44.80;;;;;;6167948;28;83557;-62
2024/03/09 10:51:52;;;;;;;19.52;12.38;;;23.70;45.40;;;;;;6161618;28;83994;-57
2024/03/09 10:54:54;;;;;;;22.23;12.57;;;23.70;45.60;;;;;;6165986;28;86590;-56
2024/03/09 10:57:55;;;;;;;15.88;11.52;;;23.70;45.80;;;;;;6172238;28;82721;-54
2024/03/09 11:00:55;;;;;;;19.92;12.45;;;23.80;46.50;;;;;;6171173;28;83072;-55
2024/03/09 11:03:59;;;;;;;18.15;12.25;;;23.70;46.60;;;;;;6171160;28;84346;-55
2024/03/09 11:07:00;;;;;;;16.92;11.32;;;23.80;46.80;;;;;;6171347;28;83764;-56
2024/03/09 11:10:02;;;;;;;22.33;12.10;;;23.80;46.80;;;;;;6164994;28;84180;-52
2024/03/09 11:13:02;;;;;;;15.82;11.82;;;23.80;46.70;;;;;;6158621;28;83670;-54
2024/03/09 11:16:03;;;;;;;15.05;10.48;;;23.90;46.60;;;;;;6167869;28;88924;-55
2024/03/09 11:19:08;;;;;;;17.52;11.90;;;23.80;46.90;;;;;;6172857;28;85762;-55
2024/03/09 11:22:08;;;;;;;15.30;9.88;;;23.80;47.00;;;;;;6163257;28;86256;-55
2024/03/09 11:25:12;;;;;;;18.08;11.52;;;23.90;47.70;;;;;;6171917;28;82845;-54
2024/03/09 11:28:12;;;;;;;17.70;10.52;;;23.90;47.00;;;;;;6153125;28;82818;-54
2024/03/09 11:31:17;;;;;;;18.77;11.23;;;23.90;46.80;;;;;;6153409;28;86594;-56
2024/03/09 11:34:18;;;;;;;18.10;11.05;;;24.00;47.00;;;;;;6161391;28;85773;-57
2024/03/09 11:37:21;;;;;;;17.45;11.98;;;24.00;46.80;;;;;;6161089;28;83881;-56
2024/03/09 11:40:22;;;;;;;14.85;10.50;;;24.10;46.60;;;;;;6169265;28;82968;-53
2024/03/09 11:43:22;;;;;;;16.30;11.25;;;24.20;46.80;;;;;;6167003;28;83466;-55
2024/03/09 11:46:23;;;;;;;18.27;11.57;;;24.30;46.80;;;;;;6168383;28;84138;-56
2024/03/09 11:49:27;;;;;;;18.92;10.93;;;24.40;46.80;;;;;;6162262;28;83285;-52
2024/03/09 11:52:30;;;;;;;15.32;11.55;;;24.40;46.80;;;;;;6161155;28;84034;-54
2024/03/09 11:55:30;;;;;;;17.98;11.93;;;24.50;46.80;;;;;;6160125;28;84706;-52
2024/03/09 11:58:31;;;;;;;16.42;11.45;;;24.60;46.90;;;;;;6153178;28;84452;-53
2024/03/09 12:01:34;;;;;;;15.93;11.05;;;24.60;46.80;;;;;;6158687;28;84352;-51
2024/03/09 12:04:34;;;;;;;17.63;10.98;;;24.60;46.80;;;;;;6163846;28;82878;-49
2024/03/09 12:07:35;;;;;;;19.45;11.60;;;24.70;46.70;;;;;;6168934;28;83632;-51
2024/03/09 12:10:36;;;;;;;18.60;11.05;;;24.70;46.50;;;;;;6155992;28;83752;-55
2024/03/09 12:13:37;;;;;;;15.40;10.40;;;24.70;46.40;;;;;;6163976;28;84647;-56
2024/03/09 12:16:37;;;;;;;14.88;9.70;;;24.70;46.30;;;;;;6164064;28;83632;-53
2024/03/09 12:19:38;;;;;;;17.75;10.38;;;24.80;46.30;;;;;;6162298;28;86441;-56
2024/03/09 12:22:39;;;;;;;18.48;11.20;;;24.80;46.30;;;;;;6151063;28;85371;-59
2024/03/09 12:25:39;;;;;;;23.77;11.00;;;24.80;46.70;;;;;;6153860;28;84470;-59
2024/03/09 12:28:40;;;;;;;20.02;11.65;;;24.90;46.70;;;;;;6153623;28;84574;-60
2024/03/09 12:31:40;;;;;;;20.13;12.30;;;24.90;46.80;;;;;;6154670;28;84709;-61
2024/03/09 12:34:41;;;;;;;19.58;10.88;;;24.90;46.80;;;;;;6156527;28;84096;-59
2024/03/09 12:37:42;;;;;;;18.13;10.48;;;24.90;46.80;;;;;;6158798;28;84401;-60
2024/03/09 12:40:43;;;;;;;20.90;10.70;;;24.90;47.00;;;;;;6152915;28;85280;-54
2024/03/09 12:43:44;;;;;;;15.63;10.50;;;24.90;47.10;;;;;;6159600;28;84034;-61
2024/03/09 12:46:44;;;;;;;19.00;10.05;;;25.00;47.30;;;;;;6160140;28;83822;-58
2024/03/09 12:49:45;;;;;;;16.92;10.48;;;25.00;47.40;;;;;;6155666;28;85073;-60
2024/03/09 12:52:46;;;;;;;17.98;10.38;;;25.00;47.70;;;;;;6157540;28;84472;-60
2024/03/09 12:55:46;;;;;;;21.48;10.13;;;25.10;48.20;;;;;;6153635;28;84109;-60
2024/03/09 12:58:47;;;;;;;20.73;10.73;;;25.10;48.30;;;;;;6156492;28;84350;-60
2024/03/09 13:01:48;;;;;;;17.77;11.15;;;25.10;48.50;;;;;;6157925;28;83919;-61
2024/03/09 13:04:50;;;;;;;17.98;9.85;;;25.20;49.00;;;;;;6151976;28;84270;-60
2024/03/09 13:07:56;;;;;;;16.63;10.23;;;25.20;49.50;;;;;;6155839;28;81919;-60
2024/03/09 13:10:56;;;;;;;15.85;10.23;;;25.20;50.50;;;;;;6149362;28;88969;-60
2024/03/09 13:13:57;;;;;;;17.85;9.27;;;25.20;50.20;;;;;;6157050;28;84425;-60
2024/03/09 13:16:58;;;;;;;17.75;10.50;;;25.20;50.90;;;;;;6162104;28;83773;-61
2024/03/09 13:19:58;;;;;;;19.13;9.52;;;25.20;52.00;;;;;;6166243;28;82877;-60
2024/03/09 13:23:02;;;;;;;18.30;9.13;;;25.20;52.60;;;;;;6168277;28;83454;-58
2024/03/09 13:26:02;;;;;;;19.90;13.00;;;25.30;53.30;;;;;;6176181;28;80296;-64
2024/03/09 13:29:03;;;;;;;17.05;11.50;;;25.30;49.70;;;;;;6169170;28;83777;-65
2024/03/09 13:32:15;;;;;;;25.58;12.27;;;25.30;51.70;;;;;;6172619;28;84109;-63
2024/03/09 13:35:19;;;;;;;18.90;9.95;;;25.30;50.90;;;;;;6167380;28;83209;-65
2024/03/09 13:38:20;;;;;;;20.67;10.50;;;25.30;52.00;;;;;;6160645;28;82866;-67
2024/03/09 13:41:23;;;;;;;16.65;10.02;;;25.30;52.10;;;;;;6160067;28;88201;-65
2024/03/09 13:44:24;;;;;;;16.23;9.77;;;25.30;52.10;;;;;;6171454;28;84148;-66
2024/03/09 13:47:24;;;;;;;20.48;9.38;;;25.30;52.10;;;;;;6178770;28;82982;-69
2024/03/09 13:50:28;;;;;;;14.75;9.38;;;25.20;52.30;;;;;;6175399;28;80118;-65
2024/03/09 13:53:33;;;;;;;22.10;9.68;;;25.20;52.20;;;;;;6176765;28;80706;-64
2024/03/09 13:56:33;;;;;;;17.17;9.70;;;25.10;52.00;;;;;;6176262;28;80453;-63
2024/03/09 13:59:35;;;;;;;12.25;8.93;;;25.10;52.00;;;;;;6173696;28;80203;-62
2024/03/09 14:02:36;;;;;;;21.00;9.20;;;25.10;52.10;;;;;;6170135;28;83448;-63
2024/03/09 14:05:37;;;;;;;21.63;9.68;;;25.10;52.20;;;;;;6171630;28;81933;-65
2024/03/09 14:08:39;;;;;;;33.53;9.15;;;25.10;52.60;;;;;;6168650;28;83205;-63
2024/03/09 14:11:45;;;;;;;25.30;8.65;;;25.00;52.60;;;;;;6174225;28;80599;-63
2024/03/09 14:14:46;;;;;;;28.27;10.02;;;25.00;53.60;;;;;;6157225;28;80924;-56
2024/03/09 14:17:47;;;;;;;13.60;8.70;;;25.00;53.00;;;;;;6173282;28;83060;-49
2024/03/09 14:20:47;;;;;;;16.67;9.27;;;25.00;52.60;;;;;;6175051;28;82773;-54
2024/03/09 14:23:48;;;;;;;17.60;8.48;;;25.00;52.90;;;;;;6159515;28;80966;-53
2024/03/09 14:26:48;;;;;;;21.67;9.35;;;25.00;52.40;;;;;;6151662;28;80903;-55
2024/03/09 14:29:49;;;;;;;21.27;9.35;;;25.00;52.80;;;;;;6152715;28;80406;-56
2024/03/09 14:32:49;;;;;;;30.15;10.35;;;25.00;52.70;;;;;;6159720;28;80257;-48
2024/03/09 14:35:50;;;;;;;24.48;10.60;;;25.00;53.30;;;;;;6149945;28;83625;-54
2024/03/09 14:38:54;;;;;;;17.60;10.10;;;24.90;53.10;;;;;;6167640;28;88181;-56
2024/03/09 14:41:54;;;;;;;22.20;10.38;;;24.90;53.50;;;;;;6168758;28;85104;-52
2024/03/09 14:44:56;;;;;;;20.40;9.95;;;24.80;53.60;;;;;;6169372;28;83171;-56
2024/03/09 14:47:59;;;;;;;22.60;10.48;;;24.70;53.70;;;;;;6171930;28;82843;-55
2024/03/09 14:51:01;;;;;;;22.33;10.93;;;24.70;53.70;;;;;;6168784;28;85137;-59
2024/03/09 14:54:01;;;;;;;22.63;10.57;;;24.70;53.90;;;;;;6168534;28;84892;-59
2024/03/09 14:57:04;;;;;;;20.73;10.02;;;24.70;53.90;;;;;;6170744;28;83889;-59
2024/03/09 15:00:14;;;;;;;19.67;10.15;;;24.70;53.90;;;;;;6170735;28;83548;-60
2024/03/09 15:06:22;;;;;;;19.33;9.55;;;24.60;53.90;;;;;;6169870;28;83031;-59
2024/03/09 15:09:27;;;;;;;17.08;9.93;;;24.60;53.90;;;;;;6175210;28;81869;-61
2024/03/09 15:12:28;;;;;;;14.93;9.57;;;24.60;53.90;;;;;;6172103;28;80326;-61
2024/03/09 15:15:30;;;;;;;15.30;9.05;;;24.60;53.80;;;;;;6161974;28;80436;-61
2024/03/09 15:18:31;;;;;;;14.55;9.40;;;24.50;53.80;;;;;;6175808;28;81027;-62
2024/03/09 15:21:31;;;;;;;16.00;9.60;;;24.50;53.70;;;;;;6163501;28;81019;-62
2024/03/09 15:24:32;;;;;;;16.23;9.35;;;24.50;53.50;;;;;;6174843;28;81226;-62